RYR49E LEZL-GCFV
Flight info
| Callsign | RYR49E |
|---|---|
| Flight time | 2h 10m |
| Altitude | 35000 |
| Route | CLANA N857 KORNO UN857 TERTO |
| Aircraft | B738/M-SDE3FGILRWY/SB1 |
Departure
| Time | 2026-04-23 11:59 |
|---|---|
| Airport | Seville Airport (LEZL) |
Arrival
| Time | 2026-04-23 14:09 |
|---|---|
| Airport | Fuerteventura Airport (GCFV) |
| Time | Latitude | Longitude | Altitude | Speed | Heading |
|---|---|---|---|---|---|
| 2026-04-23 11:24 | 37.42428 | -5.89657 | 95 ft | 0 kts | 44° |
| 2026-04-23 11:47 | 37.42428 | -5.89658 | 95 ft | 0 kts | 45° |
| 2026-04-23 11:51 | 37.42427 | -5.89658 | 97 ft | 1 kts | 44° |
| 2026-04-23 11:51 | 37.42417 | -5.89672 | 95 ft | 3 kts | 63° |
| 2026-04-23 11:52 | 37.42412 | -5.89693 | 95 ft | 3 kts | 108° |
| 2026-04-23 11:52 | 37.42420 | -5.89712 | 95 ft | 2 kts | 135° |
| 2026-04-23 11:52 | 37.42423 | -5.89715 | 94 ft | 0 kts | 136° |
| 2026-04-23 11:54 | 37.42409 | -5.89697 | 95 ft | 10 kts | 136° |
| 2026-04-23 11:54 | 37.42350 | -5.89634 | 95 ft | 11 kts | 140° |
| 2026-04-23 11:55 | 37.42292 | -5.89563 | 94 ft | 12 kts | 135° |
| 2026-04-23 11:55 | 37.42251 | -5.89512 | 94 ft | 6 kts | 139° |
| 2026-04-23 11:55 | 37.42194 | -5.89504 | 94 ft | 13 kts | 177° |
| 2026-04-23 11:55 | 37.42090 | -5.89480 | 94 ft | 16 kts | 146° |
| 2026-04-23 11:56 | 37.42003 | -5.89384 | 93 ft | 16 kts | 133° |
| 2026-04-23 11:56 | 37.41982 | -5.89249 | 95 ft | 16 kts | 90° |
| 2026-04-23 11:56 | 37.41983 | -5.89114 | 97 ft | 15 kts | 90° |
| 2026-04-23 11:56 | 37.41983 | -5.88984 | 98 ft | 15 kts | 90° |
| 2026-04-23 11:57 | 37.41983 | -5.88860 | 101 ft | 14 kts | 90° |
| 2026-04-23 11:57 | 37.41954 | -5.88760 | 105 ft | 13 kts | 166° |
| 2026-04-23 11:57 | 37.41863 | -5.88769 | 104 ft | 13 kts | 186° |
| 2026-04-23 11:57 | 37.41800 | -5.88816 | 102 ft | 5 kts | 262° |
| 2026-04-23 11:58 | 37.41800 | -5.88822 | 102 ft | 1 kts | 268° |
| 2026-04-23 11:58 | 37.41798 | -5.89035 | 99 ft | 62 kts | 269° |
| 2026-04-23 11:58 | 37.41794 | -5.89893 | 94 ft | 130 kts | 270° |
| 2026-04-23 11:58 | 37.41788 | -5.91200 | 403 ft | 156 kts | 269° |
| 2026-04-23 11:59 | 37.41844 | -5.92554 | 1136 ft | 159 kts | 280° |
| 2026-04-23 11:59 | 37.42418 | -5.93799 | 1803 ft | 169 kts | 310° |
| 2026-04-23 11:59 | 37.43187 | -5.94881 | 2646 ft | 167 kts | 305° |
| 2026-04-23 11:59 | 37.43729 | -5.96232 | 3210 ft | 177 kts | 279° |
| 2026-04-23 12:00 | 37.43853 | -5.97821 | 3653 ft | 197 kts | 272° |
| 2026-04-23 12:00 | 37.43964 | -5.99632 | 4034 ft | 215 kts | 272° |
| 2026-04-23 12:00 | 37.44088 | -6.01583 | 4289 ft | 236 kts | 271° |
| 2026-04-23 12:00 | 37.43897 | -6.03706 | 4504 ft | 257 kts | 246° |
| 2026-04-23 12:01 | 37.42906 | -6.05609 | 5138 ft | 265 kts | 224° |
| 2026-04-23 12:01 | 37.41395 | -6.06897 | 5941 ft | 265 kts | 197° |
| 2026-04-23 12:01 | 37.39578 | -6.07228 | 6790 ft | 265 kts | 178° |
| 2026-04-23 12:01 | 37.37729 | -6.07100 | 7638 ft | 267 kts | 175° |
| 2026-04-23 12:02 | 37.35874 | -6.06929 | 8560 ft | 268 kts | 176° |
| 2026-04-23 12:02 | 37.34012 | -6.06765 | 9486 ft | 270 kts | 176° |
| 2026-04-23 12:02 | 37.32133 | -6.06603 | 10346 ft | 274 kts | 176° |
| 2026-04-23 12:02 | 37.30252 | -6.06443 | 10606 ft | 297 kts | 176° |
| 2026-04-23 12:03 | 37.28014 | -6.06257 | 10889 ft | 321 kts | 176° |
| 2026-04-23 12:03 | 37.25755 | -6.06075 | 11549 ft | 329 kts | 176° |
| 2026-04-23 12:03 | 37.23462 | -6.05894 | 12395 ft | 331 kts | 176° |
| 2026-04-23 12:03 | 37.21159 | -6.05715 | 13279 ft | 333 kts | 176° |
| 2026-04-23 12:04 | 37.18868 | -6.05537 | 14115 ft | 336 kts | 176° |
| 2026-04-23 12:04 | 37.17288 | -6.05437 | 14642 ft | 338 kts | 180° |
| 2026-04-23 12:04 | 37.14970 | -6.05987 | 15417 ft | 344 kts | 199° |
| 2026-04-23 12:04 | 37.12859 | -6.07414 | 16253 ft | 349 kts | 214° |
| 2026-04-23 12:05 | 37.10957 | -6.09341 | 17086 ft | 353 kts | 218° |
| 2026-04-23 12:05 | 37.08487 | -6.12007 | 18256 ft | 355 kts | 218° |
| 2026-04-23 12:05 | 37.06599 | -6.14024 | 18914 ft | 359 kts | 218° |
| 2026-04-23 12:05 | 37.04670 | -6.16048 | 19527 ft | 365 kts | 217° |
| 2026-04-23 12:06 | 37.03347 | -6.17426 | 19968 ft | 367 kts | 217° |
| 2026-04-23 12:06 | 37.01379 | -6.19484 | 20623 ft | 371 kts | 217° |
| 2026-04-23 12:06 | 36.97404 | -6.23700 | 21895 ft | 378 kts | 217° |
| 2026-04-23 12:07 | 36.95388 | -6.25844 | 22518 ft | 382 kts | 217° |
| 2026-04-23 12:07 | 36.93378 | -6.27980 | 23113 ft | 386 kts | 217° |
| 2026-04-23 12:07 | 36.91320 | -6.30164 | 23683 ft | 390 kts | 217° |
| 2026-04-23 12:07 | 36.89244 | -6.32364 | 24202 ft | 393 kts | 217° |
| 2026-04-23 12:08 | 36.87151 | -6.34581 | 24734 ft | 395 kts | 217° |
| 2026-04-23 12:08 | 36.85049 | -6.36805 | 25259 ft | 397 kts | 217° |
| 2026-04-23 12:08 | 36.82934 | -6.39041 | 25761 ft | 400 kts | 217° |
| 2026-04-23 12:08 | 36.80801 | -6.41293 | 26250 ft | 403 kts | 217° |
| 2026-04-23 12:09 | 36.78657 | -6.43556 | 26709 ft | 406 kts | 218° |
| 2026-04-23 12:09 | 36.76496 | -6.45834 | 27178 ft | 408 kts | 218° |
| 2026-04-23 12:09 | 36.74320 | -6.48127 | 27696 ft | 410 kts | 218° |
| 2026-04-23 12:09 | 36.72142 | -6.50420 | 28220 ft | 410 kts | 218° |
| 2026-04-23 12:10 | 36.69957 | -6.52720 | 28660 ft | 413 kts | 218° |
| 2026-04-23 12:10 | 36.67754 | -6.55035 | 29059 ft | 416 kts | 218° |
| 2026-04-23 12:10 | 36.65536 | -6.57365 | 29460 ft | 419 kts | 218° |
| 2026-04-23 12:10 | 36.63301 | -6.59711 | 29866 ft | 421 kts | 218° |
| 2026-04-23 12:11 | 36.61058 | -6.62064 | 30228 ft | 423 kts | 218° |
| 2026-04-23 12:11 | 36.58801 | -6.64429 | 30547 ft | 425 kts | 218° |
| 2026-04-23 12:11 | 36.56534 | -6.66805 | 30915 ft | 426 kts | 218° |
| 2026-04-23 12:11 | 36.54271 | -6.69174 | 31361 ft | 424 kts | 218° |
| 2026-04-23 12:12 | 36.52018 | -6.71530 | 31829 ft | 423 kts | 218° |
| 2026-04-23 12:12 | 36.49765 | -6.73879 | 32235 ft | 422 kts | 218° |
| 2026-04-23 12:12 | 36.47506 | -6.76214 | 32631 ft | 422 kts | 218° |
| 2026-04-23 12:12 | 36.45243 | -6.78543 | 33048 ft | 422 kts | 217° |
| 2026-04-23 12:13 | 36.42987 | -6.80861 | 33475 ft | 421 kts | 217° |
| 2026-04-23 12:13 | 36.40734 | -6.83175 | 33891 ft | 420 kts | 217° |
| 2026-04-23 12:13 | 36.38486 | -6.85484 | 34276 ft | 420 kts | 218° |
| 2026-04-23 12:13 | 36.36238 | -6.87794 | 34639 ft | 418 kts | 218° |
| 2026-04-23 12:14 | 36.34000 | -6.90091 | 34998 ft | 417 kts | 218° |
| 2026-04-23 12:14 | 36.31748 | -6.92402 | 35023 ft | 423 kts | 218° |
| 2026-04-23 12:14 | 36.27217 | -6.97045 | 35038 ft | 421 kts | 218° |
| 2026-04-23 12:15 | 36.22746 | -7.01623 | 35048 ft | 415 kts | 218° |
| 2026-04-23 12:15 | 36.18289 | -7.06178 | 35053 ft | 416 kts | 218° |
| 2026-04-23 12:16 | 36.13822 | -7.10735 | 35051 ft | 416 kts | 218° |
| 2026-04-23 12:16 | 36.09347 | -7.15294 | 35053 ft | 417 kts | 218° |
| 2026-04-23 12:17 | 36.04865 | -7.19853 | 35052 ft | 418 kts | 218° |
| 2026-04-23 12:17 | 36.00386 | -7.24427 | 35065 ft | 418 kts | 220° |
| 2026-04-23 12:18 | 35.95922 | -7.28961 | 35050 ft | 418 kts | 219° |
| 2026-04-23 12:18 | 35.91417 | -7.33493 | 35057 ft | 418 kts | 219° |
| 2026-04-23 12:19 | 35.86924 | -7.38037 | 35052 ft | 418 kts | 219° |
| 2026-04-23 12:19 | 35.82430 | -7.42573 | 35060 ft | 417 kts | 219° |
| 2026-04-23 12:20 | 35.77923 | -7.47075 | 35056 ft | 417 kts | 219° |
| 2026-04-23 12:20 | 35.73413 | -7.51564 | 35060 ft | 417 kts | 219° |
| 2026-04-23 12:21 | 35.68908 | -7.56046 | 35057 ft | 417 kts | 219° |
| 2026-04-23 12:21 | 35.64399 | -7.60529 | 35080 ft | 416 kts | 219° |
| 2026-04-23 12:22 | 35.59892 | -7.65004 | 35069 ft | 417 kts | 219° |
| 2026-04-23 12:22 | 35.55381 | -7.69477 | 35062 ft | 417 kts | 219° |
| 2026-04-23 12:23 | 35.50868 | -7.73945 | 35060 ft | 417 kts | 219° |
| 2026-04-23 12:23 | 35.46356 | -7.78406 | 35060 ft | 416 kts | 219° |
| 2026-04-23 12:24 | 35.41845 | -7.82859 | 35064 ft | 416 kts | 219° |
| 2026-04-23 12:24 | 35.37343 | -7.87335 | 35063 ft | 417 kts | 219° |
| 2026-04-23 12:25 | 35.32852 | -7.91828 | 35063 ft | 417 kts | 219° |
| 2026-04-23 12:25 | 35.28358 | -7.96317 | 35063 ft | 417 kts | 219° |
| 2026-04-23 12:26 | 35.23859 | -8.00802 | 35063 ft | 417 kts | 219° |
| 2026-04-23 12:26 | 35.19388 | -8.05250 | 35064 ft | 417 kts | 219° |
| 2026-04-23 12:27 | 35.14887 | -8.09721 | 35068 ft | 417 kts | 219° |
| 2026-04-23 12:27 | 35.10378 | -8.14192 | 35067 ft | 417 kts | 219° |
| 2026-04-23 12:28 | 35.05870 | -8.18657 | 35064 ft | 417 kts | 219° |
| 2026-04-23 12:28 | 35.01360 | -8.23117 | 35068 ft | 417 kts | 219° |
| 2026-04-23 12:29 | 34.96846 | -8.27574 | 35064 ft | 417 kts | 219° |
| 2026-04-23 12:29 | 34.92333 | -8.32025 | 35069 ft | 417 kts | 219° |
| 2026-04-23 12:30 | 34.87820 | -8.36468 | 35076 ft | 417 kts | 219° |
| 2026-04-23 12:30 | 34.83301 | -8.40911 | 35071 ft | 417 kts | 219° |
| 2026-04-23 12:31 | 34.78781 | -8.45349 | 35067 ft | 418 kts | 219° |
| 2026-04-23 12:31 | 34.74267 | -8.49774 | 35078 ft | 418 kts | 219° |
| 2026-04-23 12:32 | 34.69695 | -8.54250 | 35075 ft | 424 kts | 219° |
| 2026-04-23 12:32 | 34.65093 | -8.58748 | 35072 ft | 425 kts | 219° |
| 2026-04-23 12:33 | 34.60488 | -8.63243 | 35065 ft | 425 kts | 219° |
| 2026-04-23 12:33 | 34.55885 | -8.67730 | 35071 ft | 424 kts | 219° |
| 2026-04-23 12:34 | 34.51284 | -8.72209 | 35079 ft | 424 kts | 219° |
| 2026-04-23 12:34 | 34.46689 | -8.76676 | 35073 ft | 423 kts | 219° |
| 2026-04-23 12:35 | 34.42100 | -8.81120 | 35072 ft | 421 kts | 219° |
| 2026-04-23 12:35 | 34.37515 | -8.85526 | 35070 ft | 420 kts | 219° |
| 2026-04-23 12:36 | 34.32949 | -8.89907 | 35072 ft | 418 kts | 219° |
| 2026-04-23 12:36 | 34.28393 | -8.94275 | 35069 ft | 417 kts | 219° |
| 2026-04-23 12:37 | 34.23845 | -8.98631 | 35073 ft | 417 kts | 219° |
| 2026-04-23 12:37 | 34.19302 | -9.02978 | 35074 ft | 417 kts | 219° |
| 2026-04-23 12:38 | 34.14752 | -9.07324 | 35068 ft | 417 kts | 219° |
| 2026-04-23 12:38 | 34.10204 | -9.11663 | 35076 ft | 417 kts | 219° |
| 2026-04-23 12:39 | 34.05648 | -9.16003 | 35076 ft | 417 kts | 219° |
| 2026-04-23 12:39 | 34.01095 | -9.20335 | 35070 ft | 417 kts | 219° |
| 2026-04-23 12:40 | 33.96538 | -9.24664 | 35073 ft | 417 kts | 219° |
| 2026-04-23 12:40 | 33.91981 | -9.28986 | 35077 ft | 417 kts | 219° |
| 2026-04-23 12:41 | 33.87422 | -9.33305 | 35069 ft | 417 kts | 219° |
| 2026-04-23 12:41 | 33.82864 | -9.37616 | 35066 ft | 417 kts | 219° |
| 2026-04-23 12:42 | 33.78307 | -9.41921 | 35076 ft | 417 kts | 219° |
| 2026-04-23 12:42 | 33.73745 | -9.46225 | 35087 ft | 417 kts | 219° |
| 2026-04-23 12:43 | 33.69185 | -9.50520 | 35071 ft | 416 kts | 219° |
| 2026-04-23 12:43 | 33.64630 | -9.54806 | 35072 ft | 416 kts | 219° |
| 2026-04-23 12:44 | 33.60084 | -9.59076 | 35072 ft | 414 kts | 219° |
| 2026-04-23 12:44 | 33.55550 | -9.63329 | 35070 ft | 413 kts | 219° |
| 2026-04-23 12:45 | 33.51056 | -9.67540 | 35077 ft | 412 kts | 219° |
| 2026-04-23 12:45 | 33.46538 | -9.71766 | 35076 ft | 412 kts | 219° |
| 2026-04-23 12:46 | 33.42026 | -9.75983 | 35080 ft | 411 kts | 219° |
| 2026-04-23 12:46 | 33.37518 | -9.80189 | 35077 ft | 411 kts | 219° |
| 2026-04-23 12:47 | 33.33009 | -9.84390 | 35099 ft | 411 kts | 219° |
| 2026-04-23 12:47 | 33.28498 | -9.88588 | 35063 ft | 411 kts | 219° |
| 2026-04-23 12:48 | 33.23993 | -9.92774 | 35075 ft | 410 kts | 219° |
| 2026-04-23 12:48 | 33.19497 | -9.96947 | 35070 ft | 409 kts | 219° |
| 2026-04-23 12:49 | 33.15002 | -10.01114 | 35075 ft | 409 kts | 219° |
| 2026-04-23 12:49 | 33.10514 | -10.05269 | 35076 ft | 408 kts | 219° |
| 2026-04-23 12:50 | 33.06027 | -10.09418 | 35075 ft | 408 kts | 219° |
| 2026-04-23 12:50 | 33.01539 | -10.13562 | 35073 ft | 408 kts | 219° |
| 2026-04-23 12:51 | 32.97805 | -10.17001 | 35072 ft | 408 kts | 219° |
| 2026-04-23 12:51 | 32.93310 | -10.21136 | 35086 ft | 408 kts | 219° |
| 2026-04-23 12:52 | 32.88816 | -10.25267 | 35077 ft | 408 kts | 219° |
| 2026-04-23 12:52 | 32.84320 | -10.29395 | 35075 ft | 408 kts | 219° |
| 2026-04-23 12:53 | 32.79825 | -10.33516 | 35077 ft | 408 kts | 219° |
| 2026-04-23 12:53 | 32.75339 | -10.37625 | 35078 ft | 407 kts | 219° |
| 2026-04-23 12:54 | 32.70847 | -10.41733 | 35054 ft | 407 kts | 219° |
| 2026-04-23 12:54 | 32.66361 | -10.45831 | 35066 ft | 406 kts | 219° |
| 2026-04-23 12:55 | 32.61880 | -10.49919 | 35075 ft | 406 kts | 219° |
| 2026-04-23 12:55 | 32.57398 | -10.54002 | 35073 ft | 406 kts | 219° |
| 2026-04-23 12:56 | 32.52914 | -10.58082 | 35093 ft | 406 kts | 220° |
| 2026-04-23 12:56 | 32.48426 | -10.62161 | 35079 ft | 407 kts | 220° |
| 2026-04-23 12:57 | 32.43931 | -10.66240 | 35074 ft | 407 kts | 219° |
| 2026-04-23 12:57 | 32.39467 | -10.70285 | 35058 ft | 407 kts | 220° |
| 2026-04-23 12:58 | 32.34974 | -10.74352 | 35079 ft | 407 kts | 220° |
| 2026-04-23 12:58 | 32.30474 | -10.78421 | 35078 ft | 407 kts | 220° |
| 2026-04-23 12:59 | 32.25973 | -10.82485 | 35070 ft | 407 kts | 220° |
| 2026-04-23 12:59 | 32.21468 | -10.86547 | 35070 ft | 407 kts | 220° |
| 2026-04-23 13:00 | 32.16962 | -10.90605 | 35081 ft | 407 kts | 220° |
| 2026-04-23 13:00 | 32.12454 | -10.94660 | 35081 ft | 407 kts | 220° |
| 2026-04-23 13:01 | 32.07946 | -10.98709 | 35075 ft | 407 kts | 220° |
| 2026-04-23 13:01 | 32.03437 | -11.02754 | 35077 ft | 407 kts | 220° |
| 2026-04-23 13:02 | 31.98925 | -11.06798 | 35078 ft | 407 kts | 220° |
| 2026-04-23 13:02 | 31.94412 | -11.10836 | 35075 ft | 407 kts | 220° |
| 2026-04-23 13:03 | 31.89898 | -11.14871 | 35074 ft | 407 kts | 220° |
| 2026-04-23 13:03 | 31.85385 | -11.18901 | 35072 ft | 407 kts | 220° |
| 2026-04-23 13:04 | 31.80874 | -11.22923 | 35069 ft | 407 kts | 220° |
| 2026-04-23 13:04 | 31.76363 | -11.26941 | 35072 ft | 407 kts | 220° |
| 2026-04-23 13:05 | 31.71851 | -11.30958 | 35077 ft | 407 kts | 220° |
| 2026-04-23 13:05 | 31.67340 | -11.34975 | 35085 ft | 407 kts | 220° |
| 2026-04-23 13:06 | 31.60576 | -11.40993 | 35076 ft | 406 kts | 220° |
| 2026-04-23 13:07 | 31.56101 | -11.44968 | 35081 ft | 406 kts | 220° |
| 2026-04-23 13:07 | 31.51601 | -11.48960 | 35071 ft | 405 kts | 220° |
| 2026-04-23 13:08 | 31.47107 | -11.52942 | 35077 ft | 405 kts | 220° |
| 2026-04-23 13:08 | 31.42616 | -11.56916 | 35079 ft | 405 kts | 220° |
| 2026-04-23 13:09 | 31.38125 | -11.60886 | 35081 ft | 404 kts | 220° |
| 2026-04-23 13:09 | 31.33634 | -11.64850 | 35079 ft | 404 kts | 220° |
| 2026-04-23 13:10 | 31.29142 | -11.68811 | 35083 ft | 404 kts | 220° |
| 2026-04-23 13:10 | 31.24648 | -11.72768 | 35059 ft | 404 kts | 220° |
| 2026-04-23 13:11 | 31.20161 | -11.76715 | 35077 ft | 404 kts | 220° |
| 2026-04-23 13:11 | 31.15670 | -11.80660 | 35078 ft | 404 kts | 220° |
| 2026-04-23 13:12 | 31.11178 | -11.84601 | 35079 ft | 404 kts | 220° |
| 2026-04-23 13:12 | 31.06687 | -11.88537 | 35079 ft | 404 kts | 220° |
| 2026-04-23 13:13 | 31.02194 | -11.92470 | 35082 ft | 404 kts | 220° |
| 2026-04-23 13:13 | 30.97700 | -11.96399 | 35082 ft | 404 kts | 220° |
| 2026-04-23 13:14 | 30.93205 | -12.00324 | 35074 ft | 404 kts | 220° |
| 2026-04-23 13:14 | 30.88742 | -12.04216 | 35081 ft | 403 kts | 220° |
| 2026-04-23 13:15 | 30.84246 | -12.08132 | 35088 ft | 404 kts | 220° |
| 2026-04-23 13:15 | 30.79749 | -12.12046 | 35084 ft | 404 kts | 220° |
| 2026-04-23 13:16 | 30.75253 | -12.15953 | 35083 ft | 404 kts | 220° |
| 2026-04-23 13:16 | 30.70755 | -12.19857 | 35084 ft | 403 kts | 220° |
| 2026-04-23 13:17 | 30.66258 | -12.23756 | 35055 ft | 403 kts | 220° |
| 2026-04-23 13:17 | 30.61762 | -12.27649 | 35074 ft | 403 kts | 221° |
| 2026-04-23 13:18 | 30.57268 | -12.31538 | 35085 ft | 403 kts | 221° |
| 2026-04-23 13:18 | 30.52775 | -12.35421 | 35085 ft | 403 kts | 221° |
| 2026-04-23 13:19 | 30.48277 | -12.39297 | 35085 ft | 403 kts | 221° |
| 2026-04-23 13:19 | 30.43769 | -12.43167 | 35090 ft | 403 kts | 221° |
| 2026-04-23 13:20 | 30.39259 | -12.47035 | 35082 ft | 403 kts | 221° |
| 2026-04-23 13:20 | 30.34749 | -12.50900 | 35062 ft | 403 kts | 221° |
| 2026-04-23 13:21 | 30.30239 | -12.54762 | 35078 ft | 403 kts | 221° |
| 2026-04-23 13:21 | 30.25731 | -12.58618 | 35085 ft | 403 kts | 221° |
| 2026-04-23 13:22 | 30.21222 | -12.62469 | 35085 ft | 403 kts | 221° |
| 2026-04-23 13:22 | 30.16710 | -12.66320 | 35085 ft | 403 kts | 221° |
| 2026-04-23 13:23 | 30.12197 | -12.70167 | 35087 ft | 403 kts | 221° |
| 2026-04-23 13:23 | 30.07518 | -12.73779 | 35090 ft | 407 kts | 215° |
| 2026-04-23 13:24 | 30.02562 | -12.76882 | 35085 ft | 409 kts | 213° |
| 2026-04-23 13:24 | 29.97541 | -12.79968 | 35084 ft | 409 kts | 214° |
| 2026-04-23 13:25 | 29.92554 | -12.83104 | 35085 ft | 408 kts | 214° |
| 2026-04-23 13:25 | 29.87581 | -12.86270 | 35088 ft | 408 kts | 214° |
| 2026-04-23 13:26 | 29.82606 | -12.89445 | 34902 ft | 414 kts | 214° |
| 2026-04-23 13:26 | 29.80070 | -12.91067 | 34674 ft | 419 kts | 214° |
| 2026-04-23 13:26 | 29.77517 | -12.92694 | 34441 ft | 419 kts | 214° |
| 2026-04-23 13:26 | 29.74970 | -12.94314 | 34186 ft | 419 kts | 214° |
| 2026-04-23 13:27 | 29.72414 | -12.95939 | 33906 ft | 421 kts | 214° |
| 2026-04-23 13:27 | 29.69842 | -12.97575 | 33507 ft | 424 kts | 214° |
| 2026-04-23 13:27 | 29.67257 | -12.99217 | 33061 ft | 424 kts | 214° |
| 2026-04-23 13:27 | 29.64672 | -13.00859 | 32624 ft | 425 kts | 214° |
| 2026-04-23 13:28 | 29.62076 | -13.02506 | 32186 ft | 427 kts | 214° |
| 2026-04-23 13:28 | 29.59476 | -13.04155 | 31753 ft | 428 kts | 214° |
| 2026-04-23 13:28 | 29.56868 | -13.05809 | 31324 ft | 429 kts | 214° |
| 2026-04-23 13:28 | 29.54255 | -13.07465 | 30892 ft | 429 kts | 214° |
| 2026-04-23 13:29 | 29.51636 | -13.09124 | 30460 ft | 430 kts | 214° |
| 2026-04-23 13:29 | 29.49008 | -13.10787 | 30003 ft | 432 kts | 214° |
| 2026-04-23 13:29 | 29.46379 | -13.12451 | 29497 ft | 433 kts | 213° |
| 2026-04-23 13:29 | 29.43740 | -13.14121 | 29023 ft | 433 kts | 214° |
| 2026-04-23 13:30 | 29.41093 | -13.15794 | 28537 ft | 435 kts | 214° |
| 2026-04-23 13:30 | 29.38436 | -13.17472 | 28079 ft | 437 kts | 213° |
| 2026-04-23 13:30 | 29.35759 | -13.19153 | 27604 ft | 440 kts | 213° |
| 2026-04-23 13:30 | 29.33007 | -13.20737 | 27128 ft | 444 kts | 210° |
| 2026-04-23 13:31 | 29.30202 | -13.22249 | 26668 ft | 447 kts | 210° |
| 2026-04-23 13:31 | 29.27382 | -13.23751 | 26192 ft | 448 kts | 210° |
| 2026-04-23 13:31 | 29.24558 | -13.25278 | 25716 ft | 449 kts | 210° |
| 2026-04-23 13:31 | 29.21731 | -13.26824 | 25237 ft | 450 kts | 210° |
| 2026-04-23 13:32 | 29.18916 | -13.28370 | 24692 ft | 447 kts | 210° |
| 2026-04-23 13:32 | 29.16137 | -13.29891 | 24130 ft | 439 kts | 210° |
| 2026-04-23 13:32 | 29.13395 | -13.31388 | 23567 ft | 436 kts | 210° |
| 2026-04-23 13:32 | 29.10660 | -13.32884 | 22952 ft | 435 kts | 210° |
| 2026-04-23 13:33 | 29.07938 | -13.34372 | 22378 ft | 432 kts | 210° |
| 2026-04-23 13:33 | 29.05241 | -13.35847 | 21827 ft | 429 kts | 210° |
| 2026-04-23 13:33 | 29.02560 | -13.37312 | 21290 ft | 425 kts | 209° |
| 2026-04-23 13:33 | 28.99905 | -13.38762 | 20765 ft | 422 kts | 209° |
| 2026-04-23 13:34 | 28.97265 | -13.40202 | 20245 ft | 419 kts | 209° |
| 2026-04-23 13:34 | 28.94648 | -13.41630 | 19732 ft | 415 kts | 209° |
| 2026-04-23 13:34 | 28.92048 | -13.43047 | 19223 ft | 412 kts | 208° |
| 2026-04-23 13:34 | 28.89469 | -13.44453 | 18718 ft | 409 kts | 208° |
| 2026-04-23 13:35 | 28.86943 | -13.45829 | 18184 ft | 407 kts | 208° |
| 2026-04-23 13:35 | 28.84367 | -13.47230 | 17619 ft | 402 kts | 208° |
| 2026-04-23 13:35 | 28.81932 | -13.48552 | 17500 ft | 383 kts | 208° |
| 2026-04-23 13:35 | 28.79581 | -13.49825 | 17379 ft | 365 kts | 208° |
| 2026-04-23 13:36 | 28.77341 | -13.51037 | 17268 ft | 348 kts | 208° |
| 2026-04-23 13:36 | 28.75204 | -13.52195 | 17171 ft | 333 kts | 208° |
| 2026-04-23 13:36 | 28.73154 | -13.53307 | 16951 ft | 322 kts | 208° |
| 2026-04-23 13:36 | 28.71138 | -13.54403 | 16506 ft | 320 kts | 208° |
| 2026-04-23 13:37 | 28.69127 | -13.55497 | 16003 ft | 320 kts | 208° |
| 2026-04-23 13:37 | 28.67117 | -13.56590 | 15536 ft | 319 kts | 208° |
| 2026-04-23 13:37 | 28.65118 | -13.57675 | 15102 ft | 318 kts | 208° |
| 2026-04-23 13:37 | 28.63126 | -13.58756 | 14675 ft | 316 kts | 208° |
| 2026-04-23 13:38 | 28.61145 | -13.59831 | 14252 ft | 315 kts | 208° |
| 2026-04-23 13:38 | 28.59173 | -13.60900 | 13819 ft | 314 kts | 208° |
| 2026-04-23 13:38 | 28.57205 | -13.61965 | 13358 ft | 312 kts | 208° |
| 2026-04-23 13:38 | 28.55909 | -13.62666 | 13066 ft | 311 kts | 208° |
| 2026-04-23 13:39 | 28.53699 | -13.63859 | 12573 ft | 309 kts | 208° |
| 2026-04-23 13:39 | 28.51753 | -13.64870 | 12151 ft | 307 kts | 206° |
| 2026-04-23 13:39 | 28.49788 | -13.65823 | 11719 ft | 306 kts | 206° |
| 2026-04-23 13:39 | 28.47833 | -13.66765 | 11294 ft | 305 kts | 206° |
| 2026-04-23 13:40 | 28.46502 | -13.67275 | 11077 ft | 306 kts | 195° |
| 2026-04-23 13:40 | 28.44386 | -13.67528 | 10861 ft | 305 kts | 187° |
| 2026-04-23 13:40 | 28.42290 | -13.67666 | 10615 ft | 298 kts | 187° |
| 2026-04-23 13:40 | 28.40239 | -13.67794 | 10377 ft | 292 kts | 187° |
| 2026-04-23 13:41 | 28.38228 | -13.67926 | 10161 ft | 287 kts | 187° |
| 2026-04-23 13:41 | 28.36266 | -13.68064 | 10082 ft | 279 kts | 188° |
| 2026-04-23 13:41 | 28.34340 | -13.68206 | 10067 ft | 275 kts | 188° |
| 2026-04-23 13:41 | 28.32441 | -13.68351 | 10007 ft | 275 kts | 188° |
| 2026-04-23 13:42 | 28.30509 | -13.68503 | 9746 ft | 280 kts | 188° |
| 2026-04-23 13:42 | 28.28576 | -13.68656 | 9494 ft | 277 kts | 188° |
| 2026-04-23 13:42 | 28.26666 | -13.68806 | 9232 ft | 273 kts | 188° |
| 2026-04-23 13:42 | 28.24782 | -13.68955 | 8972 ft | 269 kts | 188° |
| 2026-04-23 13:43 | 28.22921 | -13.69103 | 8720 ft | 267 kts | 188° |
| 2026-04-23 13:43 | 28.21074 | -13.69250 | 8472 ft | 266 kts | 188° |
| 2026-04-23 13:43 | 28.19234 | -13.69398 | 8220 ft | 266 kts | 188° |
| 2026-04-23 13:43 | 28.17379 | -13.69547 | 7982 ft | 268 kts | 188° |
| 2026-04-23 13:44 | 28.15591 | -13.69991 | 7714 ft | 261 kts | 212° |
| 2026-04-23 13:44 | 28.14169 | -13.71213 | 7508 ft | 256 kts | 222° |
| 2026-04-23 13:44 | 28.12782 | -13.72485 | 7269 ft | 257 kts | 220° |
| 2026-04-23 13:44 | 28.11368 | -13.73730 | 7032 ft | 258 kts | 220° |
| 2026-04-23 13:45 | 28.09959 | -13.74980 | 6795 ft | 255 kts | 226° |
| 2026-04-23 13:45 | 28.09109 | -13.76657 | 6461 ft | 252 kts | 260° |
| 2026-04-23 13:45 | 28.09201 | -13.78612 | 6155 ft | 251 kts | 285° |
| 2026-04-23 13:45 | 28.09980 | -13.80368 | 5855 ft | 251 kts | 307° |
| 2026-04-23 13:46 | 28.11283 | -13.81669 | 5570 ft | 252 kts | 329° |
| 2026-04-23 13:46 | 28.12894 | -13.82433 | 5332 ft | 249 kts | 336° |
| 2026-04-23 13:46 | 28.14506 | -13.83174 | 5181 ft | 243 kts | 336° |
| 2026-04-23 13:46 | 28.16017 | -13.83873 | 5113 ft | 233 kts | 336° |
| 2026-04-23 13:47 | 28.17494 | -13.84553 | 5039 ft | 224 kts | 336° |
| 2026-04-23 13:47 | 28.18911 | -13.85206 | 4966 ft | 216 kts | 336° |
| 2026-04-23 13:47 | 28.20285 | -13.85841 | 4839 ft | 210 kts | 337° |
| 2026-04-23 13:47 | 28.21634 | -13.86466 | 4622 ft | 207 kts | 337° |
| 2026-04-23 13:48 | 28.22976 | -13.87036 | 4228 ft | 209 kts | 347° |
| 2026-04-23 13:48 | 28.24421 | -13.87034 | 3919 ft | 207 kts | 2° |
| 2026-04-23 13:48 | 28.25854 | -13.86993 | 3607 ft | 204 kts | 360° |
| 2026-04-23 13:48 | 28.27268 | -13.86969 | 3332 ft | 202 kts | 0° |
| 2026-04-23 13:49 | 28.28660 | -13.86929 | 3072 ft | 199 kts | 0° |
| 2026-04-23 13:49 | 28.30031 | -13.86885 | 2805 ft | 195 kts | 0° |
| 2026-04-23 13:49 | 28.31390 | -13.86840 | 2536 ft | 191 kts | 0° |
| 2026-04-23 13:49 | 28.32686 | -13.86797 | 2296 ft | 186 kts | 0° |
| 2026-04-23 13:50 | 28.33983 | -13.86753 | 2034 ft | 183 kts | 359° |
| 2026-04-23 13:50 | 28.35241 | -13.86712 | 1790 ft | 179 kts | 359° |
| 2026-04-23 13:50 | 28.36454 | -13.86668 | 1560 ft | 174 kts | 359° |
| 2026-04-23 13:50 | 28.37643 | -13.86631 | 1321 ft | 168 kts | 2° |
| 2026-04-23 13:51 | 28.38784 | -13.86577 | 1108 ft | 165 kts | 1° |
| 2026-04-23 13:51 | 28.39884 | -13.86559 | 908 ft | 153 kts | 5° |
| 2026-04-23 13:51 | 28.40923 | -13.86525 | 714 ft | 146 kts | 6° |
| 2026-04-23 13:51 | 28.41929 | -13.86564 | 519 ft | 147 kts | 338° |
| 2026-04-23 13:52 | 28.42224 | -13.86686 | 518 ft | 142 kts | 349° |
| 2026-04-23 13:52 | 28.42737 | -13.86951 | 563 ft | 144 kts | 324° |
| 2026-04-23 13:52 | 28.43690 | -13.87491 | 583 ft | 146 kts | 347° |
| 2026-04-23 13:52 | 28.43944 | -13.87582 | 685 ft | 138 kts | 354° |
| 2026-04-23 13:53 | 28.43978 | -13.87592 | 701 ft | 138 kts | 347° |
| 2026-04-23 13:54 | 28.44334 | -13.87685 | 739 ft | 150 kts | 341° |
| 2026-04-23 13:54 | 28.44633 | -13.87785 | 705 ft | 157 kts | 352° |
| 2026-04-23 13:54 | 28.45665 | -13.87675 | 725 ft | 171 kts | 33° |
| 2026-04-23 13:55 | 28.46611 | -13.86568 | 1248 ft | 223 kts | 54° |
| 2026-04-23 13:55 | 28.47724 | -13.84985 | 1221 ft | 290 kts | 43° |
| 2026-04-23 13:55 | 28.49188 | -13.83341 | 973 ft | 293 kts | 53° |
| 2026-04-23 13:55 | 28.49979 | -13.81297 | 888 ft | 278 kts | 80° |
| 2026-04-23 13:56 | 28.49839 | -13.79224 | 1145 ft | 251 kts | 105° |
| 2026-04-23 13:56 | 28.49317 | -13.77456 | 1483 ft | 223 kts | 107° |
| 2026-04-23 13:56 | 28.48829 | -13.75818 | 1498 ft | 216 kts | 107° |
| 2026-04-23 13:56 | 28.48381 | -13.74211 | 1329 ft | 210 kts | 95° |
| 2026-04-23 13:57 | 28.48720 | -13.72711 | 1400 ft | 196 kts | 55° |
| 2026-04-23 13:57 | 28.49472 | -13.71400 | 1484 ft | 202 kts | 58° |
| 2026-04-23 13:57 | 28.50207 | -13.69993 | 2049 ft | 211 kts | 57° |
| 2026-04-23 13:57 | 28.50964 | -13.68564 | 3198 ft | 212 kts | 57° |
| 2026-04-23 13:58 | 28.51732 | -13.67106 | 3774 ft | 222 kts | 56° |
| 2026-04-23 13:58 | 28.52471 | -13.65500 | 3998 ft | 251 kts | 72° |
| 2026-04-23 13:58 | 28.52419 | -13.63424 | 4025 ft | 274 kts | 109° |
| 2026-04-23 13:58 | 28.51318 | -13.61672 | 4012 ft | 277 kts | 144° |
| 2026-04-23 13:59 | 28.49561 | -13.60898 | 4020 ft | 273 kts | 178° |
| 2026-04-23 13:59 | 28.47712 | -13.61197 | 4023 ft | 269 kts | 200° |
| 2026-04-23 13:59 | 28.45975 | -13.61972 | 4013 ft | 268 kts | 206° |
| 2026-04-23 13:59 | 28.44213 | -13.62667 | 4022 ft | 268 kts | 200° |
| 2026-04-23 14:00 | 28.43103 | -13.63198 | 4002 ft | 267 kts | 209° |
| 2026-04-23 14:00 | 28.40874 | -13.64508 | 4011 ft | 268 kts | 208° |
| 2026-04-23 14:00 | 28.39217 | -13.65386 | 3894 ft | 272 kts | 207° |
| 2026-04-23 14:00 | 28.37399 | -13.66306 | 3073 ft | 294 kts | 207° |
| 2026-04-23 14:01 | 28.35614 | -13.67274 | 3188 ft | 277 kts | 206° |
| 2026-04-23 14:01 | 28.33947 | -13.68190 | 3561 ft | 260 kts | 208° |
| 2026-04-23 14:01 | 28.32339 | -13.69130 | 3934 ft | 263 kts | 210° |
| 2026-04-23 14:01 | 28.30781 | -13.70191 | 4586 ft | 265 kts | 218° |
| 2026-04-23 14:02 | 28.29447 | -13.71536 | 5302 ft | 263 kts | 232° |
| 2026-04-23 14:02 | 28.29221 | -13.71848 | 5414 ft | 267 kts | 233° |
| 2026-04-23 14:02 | 28.27920 | -13.73641 | 4705 ft | 318 kts | 233° |
| 2026-04-23 14:03 | 28.26500 | -13.75578 | 4291 ft | 317 kts | 229° |
| 2026-04-23 14:03 | 28.25050 | -13.77402 | 4006 ft | 306 kts | 231° |
| 2026-04-23 14:03 | 28.23688 | -13.79203 | 3771 ft | 296 kts | 231° |
| 2026-04-23 14:03 | 28.22625 | -13.81122 | 3473 ft | 281 kts | 256° |
| 2026-04-23 14:04 | 28.22609 | -13.83225 | 3218 ft | 261 kts | 288° |
| 2026-04-23 14:04 | 28.23371 | -13.85007 | 2962 ft | 246 kts | 306° |
| 2026-04-23 14:04 | 28.24563 | -13.86310 | 2738 ft | 232 kts | 334° |
| 2026-04-23 14:04 | 28.26065 | -13.86698 | 2708 ft | 214 kts | 354° |
| 2026-04-23 14:05 | 28.27503 | -13.86845 | 2688 ft | 202 kts | 355° |
| 2026-04-23 14:05 | 28.28858 | -13.86900 | 2689 ft | 188 kts | 359° |
| 2026-04-23 14:05 | 28.30108 | -13.86878 | 2686 ft | 172 kts | 0° |
| 2026-04-23 14:05 | 28.31270 | -13.86842 | 2552 ft | 163 kts | 360° |
| 2026-04-23 14:06 | 28.32393 | -13.86815 | 2347 ft | 159 kts | 360° |
| 2026-04-23 14:06 | 28.33486 | -13.86774 | 2126 ft | 157 kts | 0° |
| 2026-04-23 14:06 | 28.34581 | -13.86732 | 1927 ft | 159 kts | 360° |
| 2026-04-23 14:06 | 28.35678 | -13.86686 | 1703 ft | 157 kts | 1° |
| 2026-04-23 14:07 | 28.36747 | -13.86652 | 1507 ft | 155 kts | 358° |
| 2026-04-23 14:07 | 28.38867 | -13.86596 | 1088 ft | 147 kts | 358° |
| 2026-04-23 14:07 | 28.39866 | -13.86553 | 908 ft | 147 kts | 9° |
| 2026-04-23 14:08 | 28.40899 | -13.86515 | 704 ft | 145 kts | 7° |
| 2026-04-23 14:08 | 28.41876 | -13.86485 | 493 ft | 140 kts | 6° |
| 2026-04-23 14:08 | 28.42841 | -13.86450 | 331 ft | 139 kts | 7° |
| 2026-04-23 14:08 | 28.43802 | -13.86426 | 166 ft | 137 kts | 7° |
| 2026-04-23 14:09 | 28.44749 | -13.86396 | 71 ft | 130 kts | 7° |
| 2026-04-23 14:09 | 28.45482 | -13.86368 | 85 ft | 75 kts | 0° |
| 2026-04-23 14:09 | 28.45810 | -13.86358 | 90 ft | 40 kts | 2° |
| 2026-04-23 14:09 | 28.45906 | -13.86365 | 89 ft | 0 kts | 341° |
| 2026-04-23 14:10 | 28.45920 | -13.86370 | 90 ft | 7 kts | 347° |
| 2026-04-23 14:10 | 28.45993 | -13.86394 | 92 ft | 13 kts | 338° |
| 2026-04-23 14:10 | 28.46075 | -13.86435 | 94 ft | 13 kts | 332° |
| 2026-04-23 14:11 | 28.46141 | -13.86495 | 97 ft | 12 kts | 285° |
| 2026-04-23 14:11 | 28.46085 | -13.86546 | 100 ft | 12 kts | 180° |
| 2026-04-23 14:11 | 28.45998 | -13.86548 | 97 ft | 12 kts | 182° |
| 2026-04-23 14:11 | 28.45950 | -13.86550 | 97 ft | 0 kts | 182° |
| 2026-04-23 14:12 | 28.45891 | -13.86553 | 99 ft | 21 kts | 182° |
| 2026-04-23 14:12 | 28.45763 | -13.86555 | 99 ft | 15 kts | 180° |
| 2026-04-23 14:12 | 28.45715 | -13.86637 | 100 ft | 14 kts | 272° |
| 2026-04-23 14:12 | 28.45702 | -13.86710 | 100 ft | 8 kts | 231° |
| 2026-04-23 14:13 | 28.45638 | -13.86727 | 98 ft | 12 kts | 180° |
| 2026-04-23 14:13 | 28.45544 | -13.86728 | 98 ft | 14 kts | 182° |
| 2026-04-23 14:13 | 28.45496 | -13.86733 | 98 ft | 4 kts | 202° |
| 2026-04-23 14:13 | 28.45485 | -13.86759 | 98 ft | 4 kts | 271° |
| 2026-04-23 14:14 | 28.45487 | -13.86791 | 98 ft | 4 kts | 272° |
| 2026-04-23 14:14 | 28.45487 | -13.86810 | 98 ft | 1 kts | 271° |
| 2026-04-23 14:14 | 28.45488 | -13.86826 | 98 ft | 1 kts | 271° |
| 2026-04-23 14:14 | 28.45488 | -13.86828 | 98 ft | 0 kts | 271° |
| 2026-04-23 14:15 | 28.45488 | -13.86827 | 98 ft | 0 kts | 271° |
| 2026-04-23 14:43 | 28.45488 | -13.86826 | 98 ft | 0 kts | 271° |